sensor_id;sensor_type;location;lat;lon;timestamp;P1;durP1;ratioP1;P2;durP2;ratioP2
48014;SDS011;33780;51.034;7.120;2022-12-19T06:38:07;15.32;;;7.03;;
48014;SDS011;33780;51.034;7.120;2022-12-19T06:40:32;16.33;;;6.68;;
48014;SDS011;33780;51.034;7.120;2022-12-19T06:43:27;18.48;;;7.35;;
48014;SDS011;33780;51.034;7.120;2022-12-19T06:45:53;20.73;;;7.55;;
48014;SDS011;33780;51.034;7.120;2022-12-19T06:48:20;22.75;;;8.38;;
48014;SDS011;33780;51.034;7.120;2022-12-19T06:50:45;17.67;;;7.68;;
48014;SDS011;33780;51.034;7.120;2022-12-19T06:53:11;23.33;;;8.38;;
48014;SDS011;33780;51.034;7.120;2022-12-19T06:55:36;13.82;;;6.38;;
48014;SDS011;33780;51.034;7.120;2022-12-19T06:58:02;18.48;;;7.55;;
48014;SDS011;33780;51.034;7.120;2022-12-19T07:00:28;18.05;;;6.82;;
48014;SDS011;33780;51.034;7.120;2022-12-19T07:02:53;17.63;;;7.15;;
48014;SDS011;33780;51.034;7.120;2022-12-19T07:05:20;19.50;;;7.07;;
48014;SDS011;33780;51.034;7.120;2022-12-19T07:07:46;18.05;;;7.43;;
48014;SDS011;33780;51.034;7.120;2022-12-19T07:10:11;17.70;;;6.63;;
48014;SDS011;33780;51.034;7.120;2022-12-19T07:12:36;18.23;;;7.28;;
48014;SDS011;33780;51.034;7.120;2022-12-19T07:15:02;17.35;;;6.72;;
48014;SDS011;33780;51.034;7.120;2022-12-19T07:17:27;18.95;;;6.35;;
48014;SDS011;33780;51.034;7.120;2022-12-19T07:19:54;15.63;;;6.22;;
48014;SDS011;33780;51.034;7.120;2022-12-19T07:22:21;12.02;;;5.63;;
48014;SDS011;33780;51.034;7.120;2022-12-19T07:24:50;16.65;;;6.43;;
48014;SDS011;33780;51.034;7.120;2022-12-19T07:27:16;14.93;;;6.35;;
48014;SDS011;33780;51.034;7.120;2022-12-19T07:29:41;17.50;;;6.60;;
48014;SDS011;33780;51.034;7.120;2022-12-19T07:32:06;14.15;;;5.70;;
48014;SDS011;33780;51.034;7.120;2022-12-19T07:34:32;14.48;;;5.72;;
48014;SDS011;33780;51.034;7.120;2022-12-19T07:36:57;15.50;;;6.13;;
48014;SDS011;33780;51.034;7.120;2022-12-19T07:39:22;14.85;;;6.60;;
48014;SDS011;33780;51.034;7.120;2022-12-19T07:41:48;12.98;;;6.45;;
48014;SDS011;33780;51.034;7.120;2022-12-19T07:44:13;15.13;;;6.60;;
48014;SDS011;33780;51.034;7.120;2022-12-19T07:46:40;11.52;;;5.47;;
48014;SDS011;33780;51.034;7.120;2022-12-19T07:49:06;14.20;;;6.25;;
48014;SDS011;33780;51.034;7.120;2022-12-19T07:51:31;14.98;;;5.80;;
48014;SDS011;33780;51.034;7.120;2022-12-19T07:53:56;16.73;;;7.07;;
48014;SDS011;33780;51.034;7.120;2022-12-19T07:56:22;16.70;;;6.32;;
48014;SDS011;33780;51.034;7.120;2022-12-19T07:58:47;15.10;;;6.50;;
48014;SDS011;33780;51.034;7.120;2022-12-19T08:01:12;12.65;;;6.07;;
48014;SDS011;33780;51.034;7.120;2022-12-19T08:03:38;13.77;;;6.57;;
48014;SDS011;33780;51.034;7.120;2022-12-19T08:06:03;16.88;;;6.05;;
48014;SDS011;33780;51.034;7.120;2022-12-19T08:08:30;12.77;;;6.13;;
48014;SDS011;33780;51.034;7.120;2022-12-19T08:11:09;12.43;;;5.65;;
48014;SDS011;33780;51.034;7.120;2022-12-19T08:13:41;11.13;;;5.45;;
48014;SDS011;33780;51.034;7.120;2022-12-19T08:16:06;17.20;;;6.32;;
48014;SDS011;33780;51.034;7.120;2022-12-19T08:18:31;15.25;;;6.22;;
48014;SDS011;33780;51.034;7.120;2022-12-19T08:20:57;16.38;;;6.63;;
48014;SDS011;33780;51.034;7.120;2022-12-19T08:23:22;12.70;;;5.63;;
48014;SDS011;33780;51.034;7.120;2022-12-19T08:26:00;13.00;;;6.13;;
48014;SDS011;33780;51.034;7.120;2022-12-19T08:28:28;14.52;;;6.03;;
48014;SDS011;33780;51.034;7.120;2022-12-19T17:01:45;7.97;;;3.40;;
48014;SDS011;33780;51.034;7.120;2022-12-19T17:04:16;6.82;;;3.92;;
48014;SDS011;33780;51.034;7.120;2022-12-19T17:06:44;22.40;;;3.97;;
48014;SDS011;33780;51.034;7.120;2022-12-19T17:09:16;8.23;;;3.50;;
48014;SDS011;33780;51.034;7.120;2022-12-19T17:11:44;7.18;;;3.20;;
48014;SDS011;33780;51.034;7.120;2022-12-19T17:14:17;8.35;;;4.35;;
48014;SDS011;33780;51.034;7.120;2022-12-19T17:16:44;8.90;;;3.38;;
48014;SDS011;33780;51.034;7.120;2022-12-19T17:19:14;7.85;;;3.90;;
48014;SDS011;33780;51.034;7.120;2022-12-19T17:21:43;7.35;;;2.80;;
48014;SDS011;33780;51.034;7.120;2022-12-19T17:24:12;7.38;;;3.17;;
48014;SDS011;33780;51.034;7.120;2022-12-19T17:26:38;6.10;;;2.97;;
48014;SDS011;33780;51.034;7.120;2022-12-19T17:29:03;7.13;;;3.17;;
48014;SDS011;33780;51.034;7.120;2022-12-19T17:31:29;6.07;;;2.90;;
48014;SDS011;33780;51.034;7.120;2022-12-19T17:34:02;6.70;;;2.57;;
48014;SDS011;33780;51.034;7.120;2022-12-19T17:36:29;5.93;;;2.60;;
48014;SDS011;33780;51.034;7.120;2022-12-19T17:38:55;5.82;;;2.50;;
48014;SDS011;33780;51.034;7.120;2022-12-19T17:41:20;9.52;;;3.05;;
48014;SDS011;33780;51.034;7.120;2022-12-19T17:43:46;5.55;;;2.65;;
48014;SDS011;33780;51.034;7.120;2022-12-19T17:46:18;5.78;;;2.50;;
48014;SDS011;33780;51.034;7.120;2022-12-19T17:48:46;6.18;;;2.72;;
48014;SDS011;33780;51.034;7.120;2022-12-19T17:51:15;7.00;;;2.72;;
48014;SDS011;33780;51.034;7.120;2022-12-19T17:53:42;5.88;;;2.85;;
48014;SDS011;33780;51.034;7.120;2022-12-19T17:56:14;6.68;;;2.83;;
48014;SDS011;33780;51.034;7.120;2022-12-19T17:58:41;6.80;;;3.05;;
48014;SDS011;33780;51.034;7.120;2022-12-19T18:01:19;7.13;;;2.80;;
48014;SDS011;33780;51.034;7.120;2022-12-19T18:03:46;6.45;;;2.90;;
48014;SDS011;33780;51.034;7.120;2022-12-19T18:06:13;7.50;;;2.88;;
48014;SDS011;33780;51.034;7.120;2022-12-19T18:08:39;5.80;;;2.70;;
48014;SDS011;33780;51.034;7.120;2022-12-19T18:11:06;8.57;;;2.40;;
48014;SDS011;33780;51.034;7.120;2022-12-19T18:13:40;4.43;;;2.30;;
48014;SDS011;33780;51.034;7.120;2022-12-19T18:16:05;5.68;;;2.30;;
48014;SDS011;33780;51.034;7.120;2022-12-19T18:18:35;6.05;;;2.25;;
48014;SDS011;33780;51.034;7.120;2022-12-19T18:21:01;6.53;;;2.00;;
48014;SDS011;33780;51.034;7.120;2022-12-19T18:23:26;5.13;;;2.13;;
48014;SDS011;33780;51.034;7.120;2022-12-19T18:25:52;6.03;;;2.70;;
48014;SDS011;33780;51.034;7.120;2022-12-19T18:28:18;7.00;;;2.40;;
48014;SDS011;33780;51.034;7.120;2022-12-19T18:30:43;5.88;;;2.47;;
48014;SDS011;33780;51.034;7.120;2022-12-19T18:33:20;3.85;;;2.40;;
48014;SDS011;33780;51.034;7.120;2022-12-19T18:35:48;4.40;;;2.38;;
48014;SDS011;33780;51.034;7.120;2022-12-19T18:38:15;5.75;;;2.38;;
48014;SDS011;33780;51.034;7.120;2022-12-19T18:40:42;4.20;;;1.95;;
48014;SDS011;33780;51.034;7.120;2022-12-19T18:43:12;5.28;;;2.30;;
48014;SDS011;33780;51.034;7.120;2022-12-19T18:45:40;4.22;;;2.00;;
48014;SDS011;33780;51.034;7.120;2022-12-19T18:48:11;5.70;;;2.40;;
48014;SDS011;33780;51.034;7.120;2022-12-19T18:50:42;5.15;;;2.00;;
48014;SDS011;33780;51.034;7.120;2022-12-19T18:53:14;5.55;;;2.10;;
48014;SDS011;33780;51.034;7.120;2022-12-19T18:55:42;5.40;;;2.33;;
48014;SDS011;33780;51.034;7.120;2022-12-19T18:58:08;4.97;;;2.33;;
48014;SDS011;33780;51.034;7.120;2022-12-19T19:00:33;5.63;;;2.42;;
48014;SDS011;33780;51.034;7.120;2022-12-19T19:03:02;4.25;;;2.15;;
48014;SDS011;33780;51.034;7.120;2022-12-19T19:05:39;6.25;;;2.78;;
48014;SDS011;33780;51.034;7.120;2022-12-19T19:08:13;5.50;;;2.38;;
48014;SDS011;33780;51.034;7.120;2022-12-19T19:10:41;5.07;;;2.20;;
48014;SDS011;33780;51.034;7.120;2022-12-19T19:13:08;3.42;;;1.98;;
48014;SDS011;33780;51.034;7.120;2022-12-19T19:15:33;4.43;;;1.83;;
48014;SDS011;33780;51.034;7.120;2022-12-19T19:18:04;3.72;;;2.00;;
48014;SDS011;33780;51.034;7.120;2022-12-19T19:20:32;5.70;;;2.45;;
48014;SDS011;33780;51.034;7.120;2022-12-19T19:23:00;5.78;;;1.83;;
48014;SDS011;33780;51.034;7.120;2022-12-19T19:25:26;4.63;;;2.08;;
48014;SDS011;33780;51.034;7.120;2022-12-19T19:27:52;3.97;;;2.05;;
48014;SDS011;33780;51.034;7.120;2022-12-19T19:30:17;5.65;;;2.47;;
48014;SDS011;33780;51.034;7.120;2022-12-19T19:32:44;4.63;;;2.25;;
48014;SDS011;33780;51.034;7.120;2022-12-19T19:35:14;5.35;;;2.35;;
48014;SDS011;33780;51.034;7.120;2022-12-19T19:37:41;4.05;;;2.15;;
48014;SDS011;33780;51.034;7.120;2022-12-19T19:40:08;5.55;;;2.38;;
48014;SDS011;33780;51.034;7.120;2022-12-19T19:42:34;3.75;;;1.95;;
48014;SDS011;33780;51.034;7.120;2022-12-19T19:45:00;5.50;;;2.45;;
48014;SDS011;33780;51.034;7.120;2022-12-19T19:47:26;3.38;;;1.90;;
48014;SDS011;33780;51.034;7.120;2022-12-19T19:49:53;4.70;;;2.08;;
48014;SDS011;33780;51.034;7.120;2022-12-19T19:52:19;4.05;;;2.13;;
48014;SDS011;33780;51.034;7.120;2022-12-19T19:54:45;6.55;;;2.45;;
48014;SDS011;33780;51.034;7.120;2022-12-19T23:03:58;3.58;;;1.83;;
48014;SDS011;33780;51.034;7.120;2022-12-19T23:06:29;4.03;;;2.00;;
48014;SDS011;33780;51.034;7.120;2022-12-19T23:09:21;3.88;;;2.05;;
48014;SDS011;33780;51.034;7.120;2022-12-19T23:11:47;3.00;;;1.65;;
48014;SDS011;33780;51.034;7.120;2022-12-19T23:14:14;4.13;;;2.05;;
48014;SDS011;33780;51.034;7.120;2022-12-19T23:16:42;6.38;;;1.98;;
48014;SDS011;33780;51.034;7.120;2022-12-19T23:19:07;3.40;;;1.70;;
48014;SDS011;33780;51.034;7.120;2022-12-19T23:21:34;3.97;;;1.80;;
48014;SDS011;33780;51.034;7.120;2022-12-19T23:24:00;3.85;;;1.50;;
48014;SDS011;33780;51.034;7.120;2022-12-19T23:26:27;4.45;;;1.65;;
48014;SDS011;33780;51.034;7.120;2022-12-19T23:29:01;2.17;;;1.30;;
48014;SDS011;33780;51.034;7.120;2022-12-19T23:31:29;3.67;;;1.75;;
48014;SDS011;33780;51.034;7.120;2022-12-19T23:33:55;3.45;;;1.52;;
48014;SDS011;33780;51.034;7.120;2022-12-19T23:36:21;3.92;;;1.35;;
48014;SDS011;33780;51.034;7.120;2022-12-19T23:38:46;2.88;;;1.25;;
48014;SDS011;33780;51.034;7.120;2022-12-19T23:41:12;3.22;;;1.38;;
48014;SDS011;33780;51.034;7.120;2022-12-19T23:43:39;3.22;;;1.40;;
48014;SDS011;33780;51.034;7.120;2022-12-19T23:46:06;3.40;;;1.40;;
48014;SDS011;33780;51.034;7.120;2022-12-19T23:48:39;3.78;;;1.25;;
48014;SDS011;33780;51.034;7.120;2022-12-19T23:51:09;3.15;;;1.60;;
48014;SDS011;33780;51.034;7.120;2022-12-19T23:53:37;2.50;;;1.33;;
48014;SDS011;33780;51.034;7.120;2022-12-19T23:56:03;2.92;;;1.25;;
48014;SDS011;33780;51.034;7.120;2022-12-19T23:58:31;3.03;;;1.48;;
